Time;durP1;ratioP1;P1;durP2;ratioP2;P2;SDS_P1;SDS_P2;PMS_P1;PMS_P2;Temp;Humidity;BMP_temperature;BMP_pressure;BME280_temperature;BME280_humidity;BME280_pressure;Samples;Min_cycle;Max_cycle;Signal;HPM_P1;HPM_P2
2021/05/11 00:00:42;;;;;;;8.50;7.60;;;15.60;93.70;;;15.63;89.65;97420.44;5141360;27;20689;-70
2021/05/11 00:03:12;;;;;;;8.13;7.33;;;15.60;94.00;;;15.61;88.47;97417.13;5140132;27;20702;-70
2021/05/11 00:05:39;;;;;;;10.67;9.47;;;15.60;94.20;;;15.65;88.20;97380.84;5143929;27;21176;-70
2021/05/11 00:08:07;;;;;;;5.93;4.30;;;15.60;94.10;;;15.60;89.24;97372.59;5146255;27;20981;-70
2021/05/11 00:10:36;;;;;;;4.40;4.00;;;15.60;93.90;;;15.54;87.57;97388.16;5145621;27;20652;-70
2021/05/11 00:13:04;;;;;;;5.30;4.57;;;15.60;93.90;;;15.51;88.00;97389.28;5144296;27;20977;-70
2021/05/11 00:15:31;;;;;;;7.00;4.90;;;15.50;93.80;;;15.44;89.02;97376.91;5143832;27;20682;-70
2021/05/11 00:17:59;;;;;;;4.83;4.33;;;15.50;93.70;;;15.47;87.73;97392.38;5145684;27;20627;-70
2021/05/11 00:20:27;;;;;;;5.13;4.43;;;15.50;93.90;;;15.47;88.70;97385.31;5141567;27;20644;-70
2021/05/11 00:22:54;;;;;;;8.07;7.33;;;15.50;94.40;;;15.47;89.89;97377.44;5142496;27;20624;-70
2021/05/11 00:25:22;;;;;;;10.70;9.60;;;15.50;94.40;;;15.51;90.14;97380.56;5147022;27;20689;-70
2021/05/11 00:28:05;;;;;;;10.67;9.60;;;15.50;94.60;;;15.53;90.51;97368.94;5143233;27;20959;-70
2021/05/11 00:30:33;;;;;;;11.60;10.40;;;15.50;94.80;;;15.54;89.99;97357.44;5157365;27;20960;-70
2021/05/11 00:33:09;;;;;;;13.10;10.70;;;15.60;94.90;;;15.55;90.42;97363.53;5140565;27;20742;-70
2021/05/11 00:35:37;;;;;;;11.33;10.10;;;15.60;94.90;;;15.55;89.20;97361.72;5154301;27;20699;-70
2021/05/11 00:38:05;;;;;;;11.13;9.97;;;15.60;95.00;;;15.55;90.62;97361.72;5143368;27;21142;-70
2021/05/11 00:40:32;;;;;;;12.07;10.40;;;15.60;95.10;;;15.57;90.04;97367.66;5144158;27;20644;-70
2021/05/11 00:43:00;;;;;;;12.70;10.80;;;15.60;95.10;;;15.59;89.70;97368.31;5149843;27;20628;-70
2021/05/11 00:45:28;;;;;;;13.00;11.60;;;15.60;95.10;;;15.58;89.89;97359.59;5146118;27;20636;-70
2021/05/11 00:47:56;;;;;;;12.70;11.40;;;15.60;95.10;;;15.58;90.94;97356.16;5126349;27;20628;-70
2021/05/11 00:50:24;;;;;;;13.70;11.30;;;15.60;95.00;;;15.59;90.61;97357.78;5147162;27;20630;-70
2021/05/11 00:52:52;;;;;;;14.40;12.30;;;15.60;95.10;;;15.58;90.86;97356.16;5146392;27;20671;-70
2021/05/11 00:55:20;;;;;;;12.40;11.10;;;15.60;95.10;;;15.58;89.52;97358.78;5146287;27;21042;-70
2021/05/11 00:57:48;;;;;;;13.47;11.83;;;15.60;95.10;;;15.57;90.99;97365.00;5142062;27;21493;-70
2021/05/11 01:00:17;;;;;;;13.20;11.80;;;15.60;95.00;;;15.57;90.56;97368.50;5136874;27;20640;-71
2021/05/11 01:02:46;;;;;;;13.50;11.53;;;15.60;94.90;;;15.55;88.92;97359.91;5135263;27;20668;-71
2021/05/11 01:05:14;;;;;;;14.63;12.53;;;15.60;94.90;;;15.55;89.44;97353.03;5139684;27;20672;-71
2021/05/11 01:07:42;;;;;;;15.30;12.17;;;15.60;94.90;;;15.55;90.39;97353.03;5140473;27;21158;-70
2021/05/11 01:10:10;;;;;;;10.17;9.10;;;15.50;95.20;;;15.53;90.15;97349.69;5144081;27;20709;-70
2021/05/11 01:12:37;;;;;;;7.53;6.73;;;15.60;95.00;;;15.50;90.34;97358.75;5144702;27;20633;-70
2021/05/11 01:15:07;;;;;;;7.07;6.37;;;15.50;94.90;;;15.46;89.88;97361.81;5139481;27;21019;-70
2021/05/11 01:17:36;;;;;;;7.50;6.70;;;15.50;94.90;;;15.45;89.11;97360.16;5142021;27;21049;-70
2021/05/11 01:20:14;;;;;;;8.13;6.87;;;15.50;95.00;;;15.45;89.25;97352.28;5141964;27;20627;-70
2021/05/11 01:23:02;;;;;;;10.37;9.27;;;15.50;95.00;;;15.47;90.31;97342.44;5137767;27;21059;-70
2021/05/11 01:25:31;;;;;;;11.47;10.20;;;15.50;95.10;;;15.46;90.59;97336.34;5142777;27;20665;-70
2021/05/11 01:28:10;;;;;;;12.80;11.33;;;15.50;95.60;;;15.47;90.36;97339.78;5139948;27;21010;-70
2021/05/11 01:45:28;;;;;;;10.13;8.20;;;15.30;94.90;;;15.26;89.09;97297.25;5145637;27;20627;-70
2021/05/11 01:48:02;;;;;;;12.10;9.30;;;15.30;94.80;;;15.23;89.79;97297.56;5137500;27;20643;-70
2021/05/11 01:50:33;;;;;;;8.93;8.00;;;15.30;94.90;;;15.21;89.74;97296.91;5138103;27;20691;-70
2021/05/11 02:10:32;;;;;;;12.80;10.77;;;15.20;95.50;;;15.23;89.75;97290.53;5069045;27;20648;-70
2021/05/11 02:24:15;;;;;;;15.73;12.87;;;15.20;95.60;;;15.12;91.54;97318.78;5079517;28;20633;-70
2021/05/11 02:26:42;;;;;;;13.10;11.27;;;15.10;95.70;;;15.10;90.70;97320.75;5136119;27;20693;-70
2021/05/11 02:29:11;;;;;;;15.40;12.37;;;15.10;95.80;;;15.08;91.63;97317.47;5151400;27;20639;-70
2021/05/11 02:31:39;;;;;;;14.33;11.27;;;15.10;96.00;;;15.09;91.48;97314.69;5146091;27;20656;-70
2021/05/11 02:34:06;;;;;;;12.97;11.17;;;15.10;96.10;;;15.12;90.63;97321.41;5146292;27;21033;-70
2021/05/11 02:36:34;;;;;;;13.27;11.60;;;15.10;96.10;;;15.12;91.40;97316.16;5145610;27;20631;-70
2021/05/11 02:39:02;;;;;;;14.33;11.47;;;15.10;96.00;;;15.11;91.30;97311.91;5141428;27;20635;-70
2021/05/11 02:41:29;;;;;;;16.70;11.70;;;15.20;95.90;;;15.12;90.87;97308.28;5145865;27;20632;-70
2021/05/11 02:43:57;;;;;;;14.90;12.63;;;15.20;96.00;;;15.13;92.19;97300.25;5140869;27;20637;-70
2021/05/11 02:46:25;;;;;;;15.23;12.03;;;15.10;96.00;;;15.12;90.89;97303.88;5147219;27;20624;-70
2021/05/11 02:48:55;;;;;;;14.97;11.83;;;15.20;96.00;;;15.13;91.48;97294.19;5144191;27;20723;-70
2021/05/11 02:51:22;;;;;;;14.97;12.03;;;15.20;96.10;;;15.15;91.98;97289.59;5143358;27;20639;-70
2021/05/11 02:53:50;;;;;;;16.00;12.67;;;15.20;96.10;;;15.13;91.38;97295.00;5146789;27;20747;-70
2021/05/11 02:56:18;;;;;;;14.27;12.20;;;15.20;96.00;;;15.15;90.70;97297.47;5147912;27;20635;-70
2021/05/11 02:58:48;;;;;;;15.90;12.13;;;15.20;96.00;;;15.16;90.75;97302.56;5143938;27;20633;-70
2021/05/11 03:01:18;;;;;;;17.00;13.17;;;15.20;96.00;;;15.17;91.88;97311.34;5146701;27;20672;-71
2021/05/11 03:03:46;;;;;;;17.73;13.10;;;15.20;96.00;;;15.16;91.40;97317.53;5140453;27;20726;-70
2021/05/11 03:06:14;;;;;;;17.43;13.40;;;15.20;96.00;;;15.18;91.79;97320.84;5145400;27;20978;-70
2021/05/11 03:08:44;;;;;;;17.90;13.40;;;15.20;96.00;;;15.21;90.48;97317.91;5143895;27;20986;-70
2021/05/11 03:11:11;;;;;;;17.00;12.70;;;15.30;96.00;;;15.18;91.86;97319.06;5141709;27;21246;-70
2021/05/11 03:13:39;;;;;;;18.10;13.30;;;15.30;96.10;;;15.19;90.92;97319.88;5145539;27;20667;-70
2021/05/11 03:16:07;;;;;;;18.90;13.57;;;15.30;96.10;;;15.18;90.93;97329.56;5157020;27;20687;-70
2021/05/11 03:18:34;;;;;;;16.77;13.47;;;15.30;96.10;;;15.18;91.03;97334.81;5145813;27;20637;-70
2021/05/11 03:21:04;;;;;;;18.33;13.50;;;15.30;96.10;;;15.20;90.83;97326.78;5149195;27;22410;-70
2021/05/11 03:23:32;;;;;;;18.90;13.90;;;15.30;96.00;;;15.20;90.51;97321.53;5140647;27;20644;-70
2021/05/11 03:26:01;;;;;;;21.13;13.67;;;15.30;96.00;;;15.18;91.64;97307.72;5148753;27;20619;-70
2021/05/11 03:28:29;;;;;;;20.60;13.90;;;15.20;96.00;;;15.19;90.87;97307.56;5149038;27;20692;-70
2021/05/11 03:30:56;;;;;;;19.50;13.90;;;15.30;96.00;;;15.21;91.32;97316.09;5148802;27;20631;-70
2021/05/11 03:33:24;;;;;;;18.53;12.83;;;15.30;96.00;;;15.21;92.00;97315.28;5141197;27;20681;-68
2021/05/11 03:35:51;;;;;;;17.73;12.80;;;15.30;96.00;;;15.23;90.63;97313.31;5147594;27;20673;-69
2021/05/11 03:38:20;;;;;;;19.20;13.03;;;15.30;95.90;;;15.21;90.58;97299.53;5145691;27;20635;-69
2021/05/11 03:40:47;;;;;;;20.60;14.63;;;15.30;95.90;;;15.20;90.48;97306.59;5140447;27;20645;-69
2021/05/11 03:43:19;;;;;;;19.30;13.70;;;15.30;95.90;;;15.21;90.99;97308.22;5143195;27;21041;-69
2021/05/11 03:45:50;;;;;;;22.40;15.57;;;15.30;96.00;;;15.21;91.79;97299.53;5136797;27;20682;-69
2021/05/11 03:48:18;;;;;;;22.50;14.83;;;15.20;96.00;;;15.20;90.67;97290.84;5145635;27;21007;-69
2021/05/11 03:50:47;;;;;;;22.07;15.20;;;15.30;96.00;;;15.21;91.64;97299.53;5142948;27;20640;-69
2021/05/11 03:53:15;;;;;;;23.93;15.13;;;15.30;96.00;;;15.19;92.11;97299.69;5141365;27;20639;-69
2021/05/11 03:55:44;;;;;;;23.50;15.30;;;15.30;96.00;;;15.21;91.86;97296.91;5138376;27;20651;-69
2021/05/11 03:58:12;;;;;;;22.90;15.90;;;15.30;96.10;;;15.20;90.86;97297.91;5144709;27;20671;-69
2021/05/11 04:00:40;;;;;;;23.70;15.80;;;15.30;96.10;;;15.22;91.66;97290.69;5144393;27;20636;-69
2021/05/11 04:03:09;;;;;;;24.60;17.00;;;15.30;96.10;;;15.20;90.74;97279.50;5146380;27;20628;-69
2021/05/11 04:05:37;;;;;;;22.77;15.60;;;15.30;96.10;;;15.21;91.69;97275.88;5146169;27;20682;-69
2021/05/11 04:08:05;;;;;;;22.20;15.70;;;15.30;96.10;;;15.23;91.41;97279.16;5144472;27;20635;-69
2021/05/11 04:10:38;;;;;;;22.30;15.40;;;15.30;96.10;;;15.21;90.56;97271.44;5147436;27;20681;-69
2021/05/11 04:13:22;;;;;;;23.33;16.53;;;15.30;96.00;;;15.22;91.87;97278.34;5145390;27;20636;-69
2021/05/11 04:16:14;;;;;;;22.40;16.20;;;15.30;96.10;;;15.25;91.55;97274.59;5144855;27;20658;-69
2021/05/11 04:18:42;;;;;;;25.23;16.80;;;15.30;96.10;;;15.28;92.07;97282.19;5146950;27;20666;-69
2021/05/11 04:21:10;;;;;;;27.07;17.53;;;15.30;96.10;;;15.29;90.49;97275.94;5144836;27;21081;-69
2021/05/11 04:23:39;;;;;;;24.67;17.43;;;15.30;96.10;;;15.29;90.44;97292.53;5139719;27;21247;-69
2021/05/11 04:26:07;;;;;;;34.77;23.33;;;15.40;96.50;;;15.30;91.08;97291.53;5143600;27;21188;-69
2021/05/11 04:28:36;;;;;;;25.40;16.30;;;15.40;96.10;;;15.28;90.89;97290.88;5133792;27;20637;-69
2021/05/11 04:31:05;;;;;;;27.27;17.20;;;15.30;96.00;;;15.31;90.62;97287.13;5151692;27;20982;-69
2021/05/11 04:33:36;;;;;;;22.70;15.40;;;15.40;96.10;;;15.35;91.60;97275.31;5141293;27;20640;-69
2021/05/11 04:36:05;;;;;;;24.07;15.80;;;15.30;96.00;;;15.36;90.87;97269.09;5149412;27;21053;-69
2021/05/11 04:38:34;;;;;;;23.33;16.03;;;15.40;96.40;;;15.37;91.89;97266.31;5144374;27;21038;-69
2021/05/11 04:41:02;;;;;;;22.20;16.07;;;15.40;95.90;;;15.38;90.49;97257.47;5146855;27;20728;-69
2021/05/11 04:43:33;;;;;;;23.40;16.53;;;15.40;95.90;;;15.44;91.75;97258.63;5142259;27;20633;-69
2021/05/11 04:46:07;;;;;;;23.90;15.30;;;15.40;96.00;;;15.46;90.78;97265.38;5142176;27;21125;-70
2021/05/11 04:48:36;;;;;;;24.53;15.67;;;15.50;96.40;;;15.49;89.88;97256.38;5145891;27;21069;-69
2021/05/11 04:51:06;;;;;;;20.20;14.07;;;15.50;96.00;;;15.51;91.31;97257.84;5147777;27;20688;-69
2021/05/11 04:53:34;;;;;;;22.20;14.80;;;15.50;95.90;;;15.52;90.01;97266.59;5145537;27;20652;-69
2021/05/11 04:56:02;;;;;;;19.70;14.20;;;15.50;95.90;;;15.52;90.12;97266.59;5140372;27;21090;-69
2021/05/11 04:58:30;;;;;;;20.93;14.50;;;15.50;95.90;;;15.55;90.00;97270.53;5147771;27;20665;-69
2021/05/11 05:01:01;;;;;;;20.60;14.77;;;15.60;95.90;;;15.57;91.37;97268.59;5139634;27;20644;-70
2021/05/11 05:03:32;;;;;;;22.30;13.87;;;15.60;95.90;;;15.58;89.71;97267.59;5142742;27;20655;-69
2021/05/11 05:06:00;;;;;;;20.43;14.77;;;15.70;95.90;;;15.60;90.23;97270.88;5142536;27;21187;-69
2021/05/11 05:08:28;;;;;;;18.57;12.40;;;15.60;95.70;;;15.62;90.72;97262.84;5143814;27;20632;-71
2021/05/11 05:10:56;;;;;;;22.20;14.30;;;15.70;95.60;;;15.61;90.25;97269.91;5147243;27;20702;-71
2021/05/11 05:13:26;;;;;;;20.90;13.70;;;15.70;95.50;;;15.64;89.73;97289.81;5141797;27;20685;-71
2021/05/11 05:15:57;;;;;;;20.30;13.67;;;15.70;95.40;;;15.66;90.26;97303.63;5141087;27;20643;-71
2021/05/11 05:18:28;;;;;;;22.17;14.57;;;15.70;95.40;;;15.70;90.43;97297.09;5144164;27;20619;-71
2021/05/11 05:20:57;;;;;;;19.93;13.20;;;15.70;95.50;;;15.71;89.89;97293.47;5145450;27;20625;-72
2021/05/11 05:23:31;;;;;;;19.00;12.93;;;15.80;95.60;;;15.73;88.76;97302.84;5148109;27;20629;-72
2021/05/11 05:26:02;;;;;;;19.00;13.33;;;15.70;95.40;;;15.73;89.19;97294.97;5146531;27;20754;-72
2021/05/11 05:28:32;;;;;;;21.00;13.30;;;15.80;95.30;;;15.75;89.30;97287.75;5143002;27;20639;-72
2021/05/11 05:31:02;;;;;;;20.20;14.50;;;15.80;95.20;;;15.78;88.78;97284.78;5142819;27;20648;-72
2021/05/11 05:33:31;;;;;;;19.57;13.67;;;15.80;95.10;;;15.81;89.22;97276.59;5142959;27;20643;-74
2021/05/11 05:36:01;;;;;;;21.13;13.00;;;15.80;95.00;;;15.85;90.04;97256.09;5138894;27;21235;-71
2021/05/11 05:38:29;;;;;;;18.50;12.47;;;15.90;94.90;;;15.87;88.29;97249.66;5145319;27;20642;-71
2021/05/11 05:41:00;;;;;;;19.43;12.53;;;15.90;95.00;;;15.91;88.41;97260.72;5144691;27;21201;-71
2021/05/11 05:43:29;;;;;;;17.87;13.00;;;15.90;94.90;;;15.92;88.99;97263.19;5143409;27;20626;-71
2021/05/11 05:45:57;;;;;;;18.60;12.47;;;15.90;94.60;;;15.94;87.65;97266.47;5143065;27;20665;-71
2021/05/11 05:48:25;;;;;;;19.33;12.80;;;15.90;94.60;;;15.95;88.94;97278.66;5135455;27;20628;-71
2021/05/11 05:50:56;;;;;;;21.63;13.47;;;15.90;94.50;;;15.93;87.43;97259.56;5140475;27;20664;-71
2021/05/11 05:53:28;;;;;;;17.70;12.07;;;16.00;94.50;;;15.93;89.43;97264.00;5142777;27;21115;-71
2021/05/11 05:55:56;;;;;;;21.30;13.57;;;16.00;94.50;;;15.93;88.42;97264.81;5146369;27;20662;-71
2021/05/11 05:58:24;;;;;;;19.50;12.73;;;16.00;94.40;;;15.92;87.85;97268.47;5145226;27;20983;-71
2021/05/11 06:00:56;;;;;;;18.60;12.43;;;16.00;94.30;;;15.94;87.83;97258.59;5142771;27;21028;-71
2021/05/11 06:06:13;;;;;;;19.77;12.97;;;16.00;94.40;;;16.00;88.93;97286.91;5137330;27;20639;-71
2021/05/11 06:08:44;;;;;;;22.30;14.60;;;16.00;94.40;;;16.02;89.15;97279.66;5139112;27;20960;-72
2021/05/11 06:11:19;;;;;;;19.20;12.73;;;16.00;94.20;;;16.04;89.01;97289.06;5145120;27;20632;-71
2021/05/11 06:13:54;;;;;;;21.03;13.60;;;16.10;94.30;;;16.04;88.19;97282.94;5145038;27;20999;-71
2021/05/11 06:19:08;;;;;;;21.60;14.20;;;16.00;94.30;;;16.03;88.03;97297.09;5153867;27;22013;-67
2021/05/11 06:21:37;;;;;;;19.67;12.73;;;16.00;94.30;;;16.05;89.09;97310.91;5148717;27;20612;-67
2021/05/11 06:24:09;;;;;;;20.90;14.50;;;16.10;94.30;;;16.02;87.40;97291.00;5135383;27;20664;-67
2021/05/11 06:26:37;;;;;;;18.73;13.80;;;16.00;94.30;;;16.02;87.81;97277.03;5140656;27;20633;-67
2021/05/11 06:29:07;;;;;;;20.40;13.07;;;16.10;94.30;;;16.03;89.18;97278.69;5141111;27;20609;-67
2021/05/11 06:31:36;;;;;;;21.77;14.43;;;16.00;94.20;;;16.02;87.58;97274.41;5146748;27;20667;-67
2021/05/11 06:34:06;;;;;;;20.50;13.53;;;16.00;94.10;;;16.03;87.61;97270.81;5147556;27;20633;-67
2021/05/11 06:36:34;;;;;;;22.57;14.90;;;16.10;94.10;;;16.03;87.22;97270.81;5142482;27;20663;-67
2021/05/11 06:39:06;;;;;;;28.80;21.30;;;16.10;94.20;;;16.05;89.18;97268.81;5139332;27;20633;-67
2021/05/11 06:41:36;;;;;;;21.97;15.50;;;16.10;94.30;;;16.07;88.63;97266.84;5144381;27;21756;-67
2021/05/11 06:44:11;;;;;;;24.23;15.83;;;16.10;94.40;;;16.09;88.36;97259.66;5147016;27;21206;-67
2021/05/11 06:47:08;;;;;;;24.00;15.17;;;16.10;94.20;;;16.09;86.56;97254.38;5144274;27;20655;-67
2021/05/11 06:49:43;;;;;;;19.60;14.10;;;16.10;94.00;;;16.12;86.99;97254.06;5148776;27;20632;-67
2021/05/11 06:55:13;;;;;;;21.03;14.13;;;16.10;94.10;;;16.14;87.33;97275.78;5105870;27;20651;-67
2021/05/11 06:57:42;;;;;;;19.80;13.83;;;16.20;94.20;;;16.15;86.57;97275.63;5142360;27;20614;-67
2021/05/11 07:00:12;;;;;;;21.57;14.13;;;16.20;94.10;;;16.17;88.20;97255.22;5144374;27;20646;-67
2021/05/11 07:02:40;;;;;;;20.37;14.13;;;16.20;94.10;;;16.22;87.17;97253.00;5147492;27;20625;-67
2021/05/11 07:05:10;;;;;;;20.00;13.83;;;16.20;93.90;;;16.26;87.73;97264.81;5151346;27;20628;-67
2021/05/11 07:07:39;;;;;;;18.90;13.37;;;16.20;94.20;;;16.32;88.14;97252.84;5138060;27;22088;-67
2021/05/11 07:10:31;;;;;;;18.90;11.97;;;16.30;94.40;;;16.33;85.07;97251.88;5144854;27;20674;-67
2021/05/11 07:13:13;;;;;;;18.40;12.40;;;16.30;93.20;;;16.32;86.06;97239.69;5148351;27;20622;-67
2021/05/11 07:15:44;;;;;;;17.57;12.27;;;16.30;93.30;;;16.30;84.65;97242.47;5149417;27;20656;-67
2021/05/11 07:18:15;;;;;;;16.43;11.97;;;16.20;93.50;;;16.29;86.70;97229.47;5145277;27;20689;-67
2021/05/11 07:20:45;;;;;;;18.93;12.63;;;16.20;93.70;;;16.35;86.66;97221.75;5148614;27;20646;-67
2021/05/11 07:23:17;;;;;;;18.00;12.70;;;16.30;94.00;;;16.38;86.74;97218.81;5146859;27;20659;-67
2021/05/11 07:25:53;;;;;;;17.23;12.10;;;16.30;93.80;;;16.37;86.93;97222.41;5143502;27;20628;-67
2021/05/11 07:31:15;;;;;;;16.90;12.23;;;16.30;93.60;;;16.49;85.05;97233.47;5143161;27;21297;-67
2021/05/11 07:33:45;;;;;;;17.60;12.83;;;16.40;93.40;;;16.51;87.07;97219.97;5148073;27;20664;-67
2021/05/11 07:36:14;;;;;;;18.33;12.63;;;16.50;93.50;;;16.55;86.72;97215.19;5145510;27;21284;-68
2021/05/11 07:38:43;;;;;;;18.40;12.20;;;16.50;93.60;;;16.57;86.57;97211.44;5150807;27;20639;-66
2021/05/11 07:41:14;;;;;;;15.90;12.30;;;16.60;93.70;;;16.57;87.44;97206.16;5146517;27;20685;-66
2021/05/11 07:43:47;;;;;;;18.67;13.33;;;16.60;93.60;;;16.59;85.28;97203.38;5145854;27;20638;-66
2021/05/11 07:46:35;;;;;;;18.90;13.53;;;16.60;93.40;;;16.57;86.37;97203.53;5149445;27;20720;-66
2021/05/11 07:49:20;;;;;;;15.20;12.10;;;16.60;93.30;;;16.51;84.77;97190.22;5146191;27;20613;-66
2021/05/11 08:03:22;;;;;;;15.23;12.23;;;16.60;93.10;;;16.69;84.20;97204.06;5153734;27;20639;-66
2021/05/11 08:06:26;;;;;;;15.47;12.00;;;16.70;92.90;;;16.75;85.89;97216.56;5139721;27;20624;-67
2021/05/11 08:14:37;;;;;;;13.47;11.40;;;16.70;92.00;;;16.89;84.48;97216.72;5150298;27;20674;-67
2021/05/11 08:17:07;;;;;;;13.43;10.40;;;16.80;92.40;;;16.99;83.52;97241.09;5147841;27;20656;-67
2021/05/11 08:22:45;;;;;;;15.30;11.40;;;16.90;92.00;;;16.96;84.50;97246.69;5135063;27;20699;-68
2021/05/11 08:28:00;;;;;;;14.93;11.60;;;16.90;92.10;;;17.02;83.12;97235.50;5147584;27;20632;-68
2021/05/11 08:30:31;;;;;;;17.10;12.70;;;16.90;91.90;;;17.14;83.57;97234.19;5143857;27;20623;-69
2021/05/11 08:33:00;;;;;;;14.40;11.47;;;17.00;92.50;;;17.25;84.25;97226.78;5151249;27;20636;-68
2021/05/11 08:35:28;;;;;;;16.60;12.80;;;17.10;92.00;;;17.32;83.56;97224.28;5141636;27;20658;-67
2021/05/11 08:37:56;;;;;;;14.80;11.17;;;17.20;91.90;;;17.25;83.10;97229.41;5138207;27;21058;-67
2021/05/11 08:40:25;;;;;;;14.20;11.53;;;17.20;92.00;;;17.24;82.41;97211.94;5140008;27;20643;-67
2021/05/11 08:42:53;;;;;;;14.57;11.97;;;17.20;91.60;;;17.29;83.58;97193.84;5145117;27;20630;-68
2021/05/11 08:45:22;;;;;;;12.80;11.23;;;17.20;91.70;;;17.34;82.77;97185.41;5146982;27;21492;-67
2021/05/11 08:47:50;;;;;;;13.00;10.43;;;17.30;91.80;;;17.39;83.42;97177.81;5141455;27;20638;-67
2021/05/11 08:50:23;;;;;;;11.47;10.00;;;17.30;91.60;;;17.45;81.96;97187.69;5145099;27;20639;-67
2021/05/11 08:53:05;;;;;;;18.87;16.87;;;17.40;91.30;;;17.50;83.27;97178.28;5143840;27;20654;-67
2021/05/11 09:07:42;;;;;;;10.77;9.20;;;17.70;90.30;;;17.95;80.14;97187.16;5142888;27;20997;-67
2021/05/11 09:27:21;;;;;;;10.40;9.00;;;18.10;89.50;;;18.13;79.91;97236.13;5137149;27;20703;-68
2021/05/11 09:30:06;;;;;;;9.90;8.73;;;18.10;89.40;;;18.16;80.51;97227.88;5145040;27;20638;-68
2021/05/11 09:32:48;;;;;;;10.73;9.63;;;18.10;89.70;;;18.20;80.33;97238.91;5142565;27;20948;-68
2021/05/11 10:40:26;;;;;;;8.97;8.07;;;18.40;87.40;;;18.47;79.67;97187.22;5144909;27;20635;-68
2021/05/11 10:48:41;;;;;;;9.20;8.23;;;18.60;87.80;;;18.60;79.10;97186.69;5145494;27;20626;-68
2021/05/11 10:51:30;;;;;;;9.67;8.70;;;18.50;86.60;;;18.58;78.77;97188.66;5151197;27;20670;-68
2021/05/11 10:54:02;;;;;;;9.40;8.13;;;18.60;85.90;;;18.54;78.95;97185.53;5144964;27;20643;-68
2021/05/11 10:56:44;;;;;;;8.80;7.90;;;18.50;86.80;;;18.60;79.91;97186.69;5152148;27;20638;-67
2021/05/11 10:59:20;;;;;;;9.33;8.30;;;18.50;87.80;;;18.65;79.87;97208.91;5139863;27;20664;-67
2021/05/11 11:01:51;;;;;;;9.37;8.07;;;18.60;88.00;;;18.69;79.18;97212.03;5147778;27;20646;-67
2021/05/11 11:04:23;;;;;;;11.43;8.80;;;18.70;87.80;;;18.68;78.41;97208.56;5147648;27;20639;-67
2021/05/11 11:07:08;;;;;;;9.73;8.60;;;18.70;86.90;;;18.68;79.21;97205.91;5147055;27;20615;-67
2021/05/11 11:09:38;;;;;;;9.07;8.23;;;18.70;86.90;;;18.70;79.81;97206.59;5149733;27;20627;-67
2021/05/11 11:12:08;;;;;;;10.47;8.17;;;18.70;88.30;;;18.76;79.78;97208.50;5152976;27;20623;-67
2021/05/11 11:14:42;;;;;;;9.43;8.50;;;18.70;87.70;;;18.77;78.51;97211.97;5140570;27;20692;-66
2021/05/11 11:17:14;;;;;;;9.70;8.70;;;18.80;86.40;;;18.76;78.76;97213.78;5145898;27;20650;-66
2021/05/11 11:19:53;;;;;;;8.60;7.70;;;18.80;86.70;;;18.74;77.87;97205.22;5145430;27;20631;-65
2021/05/11 11:25:08;;;;;;;10.53;8.50;;;18.80;86.10;;;18.76;78.93;97197.09;5128391;27;20642;-66
2021/05/11 11:27:36;;;;;;;7.90;7.10;;;18.80;86.40;;;18.80;77.77;97199.22;5149713;27;20647;-66
2021/05/11 11:30:08;;;;;;;8.90;7.43;;;18.80;86.10;;;18.85;78.51;97198.69;5143937;27;20643;-66
2021/05/11 11:32:37;;;;;;;7.70;6.90;;;18.80;85.20;;;18.87;77.96;97194.88;5144909;27;20640;-66
2021/05/11 11:35:09;;;;;;;7.80;7.00;;;18.80;85.40;;;18.82;77.27;97191.13;5148073;27;20660;-66
2021/05/11 11:37:39;;;;;;;13.60;7.40;;;18.80;84.50;;;18.78;77.98;97188.00;5147547;27;21231;-66
2021/05/11 11:40:10;;;;;;;7.90;6.93;;;18.80;84.40;;;18.80;77.98;97187.84;5149513;27;20632;-66
2021/05/11 11:42:40;;;;;;;7.73;6.77;;;18.80;84.80;;;18.89;78.67;97203.44;5150980;27;20688;-66
2021/05/11 11:45:15;;;;;;;7.93;7.13;;;18.80;85.70;;;18.97;78.38;97216.59;5143781;27;20635;-66
2021/05/11 11:47:50;;;;;;;8.83;7.50;;;18.90;86.40;;;18.98;78.67;97223.53;5143737;27;20650;-66
2021/05/11 11:50:21;;;;;;;9.43;8.53;;;18.90;86.70;;;18.85;79.25;97233.06;5145044;27;20735;-66
2021/05/11 11:52:59;;;;;;;8.73;7.63;;;18.80;86.30;;;18.83;78.63;97237.69;5146420;27;21005;-66
2021/05/11 11:58:21;;;;;;;8.83;7.60;;;18.80;87.20;;;18.82;78.93;97242.13;5139267;27;20652;-66
2021/05/11 12:00:49;;;;;;;10.20;7.97;;;18.80;85.60;;;18.82;78.45;97241.31;5141200;27;20649;-66
2021/05/11 12:03:21;;;;;;;8.37;7.57;;;18.80;85.70;;;18.83;77.98;97248.28;5144640;27;20630;-66
2021/05/11 12:05:53;;;;;;;8.30;7.50;;;18.80;85.50;;;18.88;78.33;97247.56;5149073;27;20670;-66
2021/05/11 12:08:25;;;;;;;9.10;7.70;;;18.90;86.70;;;18.97;78.48;97253.59;5143286;27;20974;-66
2021/05/11 12:10:58;;;;;;;8.30;7.10;;;18.90;87.20;;;18.98;79.39;97263.19;5144121;27;20636;-66
2021/05/11 12:13:29;;;;;;;8.40;7.60;;;19.00;86.40;;;18.97;78.64;97261.53;5151650;27;20636;-66
2021/05/11 12:16:12;;;;;;;8.00;7.30;;;18.90;86.20;;;18.99;78.38;97264.84;5147037;27;21186;-67
2021/05/11 12:19:00;;;;;;;9.90;8.90;;;19.00;86.40;;;18.97;79.07;97256.25;5147537;27;21396;-67
2021/05/11 12:21:30;;;;;;;10.50;9.10;;;19.00;86.50;;;18.93;79.77;97249.69;5147529;27;21167;-67
2021/05/11 12:24:07;;;;;;;12.70;10.60;;;19.00;86.60;;;18.94;80.08;97248.66;5147781;27;20651;-67
2021/05/11 12:26:37;;;;;;;12.90;11.60;;;19.00;87.70;;;18.95;80.33;97240.56;5147537;27;21048;-67
2021/05/11 12:29:07;;;;;;;13.93;12.53;;;19.00;87.90;;;18.98;80.16;97247.31;5147201;27;20653;-67
2021/05/11 12:31:39;;;;;;;14.00;12.70;;;19.00;88.30;;;19.06;80.96;97244.63;5136022;27;20652;-67
2021/05/11 12:34:09;;;;;;;14.40;13.00;;;19.10;89.60;;;19.12;79.63;97247.38;5134257;27;20640;-67
2021/05/11 12:36:47;;;;;;;12.43;11.23;;;19.10;88.30;;;19.27;80.46;97239.50;5144893;27;20640;-67
2021/05/11 12:39:31;;;;;;;11.67;10.57;;;19.20;89.20;;;19.42;79.52;97244.66;5141418;27;20681;-67
2021/05/11 12:42:20;;;;;;;12.40;11.17;;;19.30;88.90;;;19.56;78.33;97245.66;5144022;27;21178;-67
2021/05/11 12:45:03;;;;;;;12.23;11.13;;;19.50;87.20;;;19.66;77.83;97241.75;5148599;27;20646;-67
2021/05/11 12:47:42;;;;;;;11.80;10.70;;;19.60;85.80;;;19.67;77.46;97232.81;5139574;27;20642;-67
2021/05/11 12:50:18;;;;;;;15.30;10.83;;;19.60;86.10;;;19.63;77.22;97244.75;5145103;27;21213;-67
2021/05/11 12:52:57;;;;;;;11.90;10.80;;;19.60;85.10;;;19.60;79.33;97247.78;5141489;27;20639;-67
2021/05/11 12:55:56;;;;;;;11.03;10.03;;;19.60;86.50;;;19.62;78.07;97252.88;5148656;27;20655;-67
2021/05/11 12:58:38;;;;;;;12.90;11.10;;;19.60;87.00;;;19.62;79.06;97251.09;5143933;27;20746;-67
2021/05/11 13:01:32;;;;;;;12.23;10.47;;;19.60;86.70;;;19.55;77.56;97254.63;5148249;27;20625;-67
2021/05/11 13:21:05;;;;;;;8.57;7.80;;;19.30;86.00;;;19.42;79.15;97249.97;5138920;27;20642;-66
2021/05/11 13:26:24;;;;;;;8.57;7.77;;;19.40;86.00;;;19.34;78.24;97251.84;5138620;27;20697;-66
2021/05/11 13:28:56;;;;;;;7.73;6.93;;;19.30;84.30;;;19.31;79.07;97252.19;5144920;27;20719;-66
2021/05/11 13:31:29;;;;;;;8.27;6.67;;;19.30;86.80;;;19.30;79.63;97268.25;5140865;27;20628;-66
2021/05/11 13:34:08;;;;;;;7.50;6.80;;;19.30;86.80;;;19.23;77.76;97273.44;5145560;27;20682;-66
2021/05/11 13:36:38;;;;;;;9.40;8.60;;;19.20;85.60;;;19.15;79.87;97281.41;5141976;27;20655;-66
2021/05/11 13:39:08;;;;;;;14.03;12.83;;;19.20;86.60;;;19.04;79.06;97281.03;5142559;27;20821;-67
2021/05/11 13:41:38;;;;;;;15.50;14.10;;;19.10;86.60;;;18.92;79.50;97288.50;5146597;27;20640;-67
2021/05/11 13:44:07;;;;;;;16.47;14.97;;;19.00;86.40;;;18.78;80.48;97284.94;5137643;27;20632;-67
2021/05/11 13:46:35;;;;;;;15.93;14.53;;;18.90;87.40;;;18.66;80.98;97292.47;5143656;27;20677;-67
2021/05/11 13:49:04;;;;;;;17.40;15.17;;;18.80;87.70;;;18.57;81.70;97295.34;5147937;27;20643;-67
2021/05/11 13:51:33;;;;;;;17.27;15.67;;;18.70;88.90;;;18.50;81.46;97292.53;5147644;27;21001;-67